Tuesday, January 16, 2018, 6:53 AM EST
Back to Local

KASH, Nashua, Boire Field Airport

Location: Nashua, NH, United States Lat: 42.782
Local Time: 6:53 AM EST (11:53 GMT) Lon: -71.515
Time Zone: US/Eastern Elev: 200 ft

Show me the last for .
Show Coded

Time T Td Feel RH Dir Speed Gust Alt SLP Vis Weather Sky Remarks
2018-01-16 05:56 17 9 - 69 - Calm - 30.51 30.55 10 SCT030 BKN046 OVC120 None
2018-01-16 04:56 17 8 - 67 - Calm - 30.50 30.54 10 SCT028 BKN120 None
2018-01-16 03:56 19 7 14 58 90° 3 - 30.50 30.54 10 BKN028 BKN040 None
2018-01-16 02:56 19 7 11 58 310° 6 - 30.54 30.57 10 OVC028 None
2018-01-16 01:56 19 7 12 58 340° 5 - 30.52 30.55 10 OVC028 None
2018-01-16 00:56 19 6 - 56 - Calm - 30.52 30.55 10 OVC030 6-hr Min Temp (1am): 19.0°F
6-hr Max Temp (1am): 19.9°F
2018-01-15 23:56 19 5 12 53 350° 5 - 30.53 30.57 10 OVC030 None
2018-01-15 22:56 19 3 10 48 330° 7 - 30.56 30.59 10 OVC032 24-hr Min Temp (11pm): 6.1°F
24-hr Max Temp (11pm): 19.9°F
2018-01-15 21:56 19 2 10 46 340° 7 - 30.57 30.61 10 FEW016 OVC030 None
2018-01-15 21:49 19 1 13 44 350° 5 - 30.57 - 10 SCT016 OVC030 None
2018-01-15 20:56 19 0 9 42 340° 8 - 30.56 30.60 10 OVC016 None
2018-01-15 19:56 20 -1 10 39 340° 8 - 30.59 30.63 10 OVC026 None
2018-01-15 18:56 20 -2 12 37 350° 6 - 30.60 30.64 10 OVC028 6-hr Min Temp (7pm): 15.1°F
6-hr Max Temp (7pm): 19.9°F
2018-01-15 17:56 20 -1 11 39 330° 7 - 30.60 30.63 10 OVC028 None
2018-01-15 16:56 20 -1 12 39 340° 6 - 30.61 30.65 10 OVC028 None
2018-01-15 15:56 20 -1 12 39 330° 6 - 30.62 30.66 10 OVC024 None
2018-01-15 14:56 19 -1 11 40 340° 6 - 30.62 30.65 10 OVC024 None
2018-01-15 13:56 18 0 7 44 350° 8 - 30.62 - 10 OVC024 None
2018-01-15 13:03 16 0 6 47 Variable 7 - 30.65 - 10 OVC024 None
2018-01-15 12:56 15 -1 5 48 350° 7 - 30.66 30.70 10 BKN030 BKN034 6-hr Min Temp (1pm): 6.1°F
6-hr Max Temp (1pm): 15.1°F
2018-01-15 11:56 14 -2 0 48 360° 12 - 30.70 30.73 10 BKN033 None
2018-01-15 10:56 12 -1 0 55 340° 8 - 30.76 30.79 10 CLR None
2018-01-15 09:56 11 -2 3 55 Variable 5 - 30.79 30.83 10 FEW017 None
2018-01-15 09:53 10 -2 1 55 Variable 6 - 30.80 - 10 SCT017 None
2018-01-15 09:44 10 -2 1 55 10° 6 - 30.80 - 10 BKN017 None
2018-01-15 08:56 8 -2 -4 62 360° 8 - 30.79 30.83 10 CLR None
2018-01-15 07:56 7 -1 -8 69 330° 10 - 30.79 30.83 10 FEW025 None
2018-01-15 06:56 6 -1 -4 72 330° 6 - 30.79 30.83 10 CLR 6-hr Min Temp (7am): 6.1°F
6-hr Max Temp (7am): 9.0°F

Support USWX by starting your Amazon purchase here.